Main page
METAR-TAF:

METAR-TAF

Airports :

Satu Mare International Airport

Satu Mare, Romania

latitude: 47-48N, longitude: 022-53E, elevation: 123 m

Current weather observation

The report was made 23 minutes ago, at 00:30 UTC
Wind 4 kt from the West/Southwest
Temperature -5°C
Humidity 100%
Pressure 1027 hPa
Visibility: 4600 m
mist

METAR: LRSM 180030Z AUTO 24004KT 4600 BR NCD M05/M05 Q1027

Time: 02:53 (00:53 UTC)

Forecast

The report was made 10 hours and 53 minutes ago, at 14:00 UTC
Forecast valid from 17 at 15 UTC to 17 at 24 UTC
Wind 4 kt from variable directions
Visibility 10 km or more
no clouds below 1500 m and no cumulonimbus
Becoming
from 17 at 17 UTC to 17 at 19 UTC
Visibility: 3000 m
mist
Becoming
from 17 at 20 UTC to 17 at 22 UTC
Visibility: 0800 m
Overcast at a height of 200 ft
freezing fog

TAF: LRSM 171400Z 1715/1724 VRB04KT CAVOK BECMG 1717/1719 3000 BR BECMG 1720/1722 0800 FZFG OVC002

Weather observations and forecasts of more than 4000 airports (METAR and TAF reports).

The available stations are represented by yellow and red dots on the map.

Hover mouse over dot to see the name of the station.

Then click to see weather observations and forecasts.

To change the map : click on the green buttons with a black cross to zoom in, on the green button with a dash to zoom out, or on the green arrows for adjacent maps.


METAR-TAF: